sensor_id;sensor_type;location;lat;lon;timestamp;P1;durP1;ratioP1;P2;durP2;ratioP2
13012;SDS011;22580;57.670;12.006;2023-04-15T00:00:17;3.57;;;3.27;;
13012;SDS011;22580;57.670;12.006;2023-04-15T00:02:44;3.93;;;3.13;;
13012;SDS011;22580;57.670;12.006;2023-04-15T00:05:14;3.43;;;3.13;;
13012;SDS011;22580;57.670;12.006;2023-04-15T00:07:41;3.30;;;3.00;;
13012;SDS011;22580;57.670;12.006;2023-04-15T00:10:09;3.30;;;3.00;;
13012;SDS011;22580;57.670;12.006;2023-04-15T00:12:36;3.03;;;2.73;;
13012;SDS011;22580;57.670;12.006;2023-04-15T00:15:03;3.30;;;3.00;;
13012;SDS011;22580;57.670;12.006;2023-04-15T00:17:32;3.13;;;2.93;;
13012;SDS011;22580;57.670;12.006;2023-04-15T00:19:59;2.70;;;2.50;;
13012;SDS011;22580;57.670;12.006;2023-04-15T00:22:27;3.70;;;3.17;;
13012;SDS011;22580;57.670;12.006;2023-04-15T00:24:54;3.20;;;2.97;;
13012;SDS011;22580;57.670;12.006;2023-04-15T00:27:21;2.93;;;2.73;;
13012;SDS011;22580;57.670;12.006;2023-04-15T00:29:48;2.70;;;2.50;;
13012;SDS011;22580;57.670;12.006;2023-04-15T00:32:15;2.70;;;2.50;;
13012;SDS011;22580;57.670;12.006;2023-04-15T00:34:42;2.67;;;2.47;;
13012;SDS011;22580;57.670;12.006;2023-04-15T00:37:09;2.70;;;2.50;;
13012;SDS011;22580;57.670;12.006;2023-04-15T00:39:38;2.23;;;2.07;;
13012;SDS011;22580;57.670;12.006;2023-04-15T00:42:05;3.60;;;3.30;;
13012;SDS011;22580;57.670;12.006;2023-04-15T00:44:32;4.03;;;3.63;;
13012;SDS011;22580;57.670;12.006;2023-04-15T00:46:59;3.10;;;2.87;;
13012;SDS011;22580;57.670;12.006;2023-04-15T00:49:26;3.17;;;2.90;;
13012;SDS011;22580;57.670;12.006;2023-04-15T00:51:55;2.93;;;2.70;;
13012;SDS011;22580;57.670;12.006;2023-04-15T00:54:22;2.70;;;2.50;;
13012;SDS011;22580;57.670;12.006;2023-04-15T00:56:50;2.70;;;2.50;;
13012;SDS011;22580;57.670;12.006;2023-04-15T00:59:17;2.73;;;2.53;;
13012;SDS011;22580;57.670;12.006;2023-04-15T01:01:45;2.20;;;2.10;;
13012;SDS011;22580;57.670;12.006;2023-04-15T01:04:12;2.70;;;2.50;;
13012;SDS011;22580;57.670;12.006;2023-04-15T01:06:39;3.30;;;2.80;;
13012;SDS011;22580;57.670;12.006;2023-04-15T01:09:06;2.77;;;2.30;;
13012;SDS011;22580;57.670;12.006;2023-04-15T01:11:33;2.50;;;2.33;;
13012;SDS011;22580;57.670;12.006;2023-04-15T01:14:02;2.73;;;2.53;;
13012;SDS011;22580;57.670;12.006;2023-04-15T01:16:30;3.27;;;2.97;;
13012;SDS011;22580;57.670;12.006;2023-04-15T01:18:57;3.27;;;2.97;;
13012;SDS011;22580;57.670;12.006;2023-04-15T01:21:24;2.50;;;2.30;;
13012;SDS011;22580;57.670;12.006;2023-04-15T01:23:52;2.97;;;2.77;;
13012;SDS011;22580;57.670;12.006;2023-04-15T01:26:23;3.50;;;2.87;;
13012;SDS011;22580;57.670;12.006;2023-04-15T01:28:50;2.77;;;2.57;;
13012;SDS011;22580;57.670;12.006;2023-04-15T01:31:17;2.20;;;2.00;;
13012;SDS011;22580;57.670;12.006;2023-04-15T01:33:44;2.10;;;2.00;;
13012;SDS011;22580;57.670;12.006;2023-04-15T01:36:12;1.90;;;1.80;;
13012;SDS011;22580;57.670;12.006;2023-04-15T01:38:39;2.67;;;2.47;;
13012;SDS011;22580;57.670;12.006;2023-04-15T01:41:06;2.50;;;2.30;;
13012;SDS011;22580;57.670;12.006;2023-04-15T01:43:34;2.70;;;2.50;;
13012;SDS011;22580;57.670;12.006;2023-04-15T01:46:02;3.37;;;3.07;;
13012;SDS011;22580;57.670;12.006;2023-04-15T01:48:29;2.70;;;2.50;;
13012;SDS011;22580;57.670;12.006;2023-04-15T01:50:57;3.40;;;3.10;;
13012;SDS011;22580;57.670;12.006;2023-04-15T01:53:24;2.97;;;2.77;;
13012;SDS011;22580;57.670;12.006;2023-04-15T01:55:51;3.00;;;2.70;;
13012;SDS011;22580;57.670;12.006;2023-04-15T01:58:18;2.93;;;2.73;;
13012;SDS011;22580;57.670;12.006;2023-04-15T02:00:47;2.93;;;2.70;;
13012;SDS011;22580;57.670;12.006;2023-04-15T02:03:14;2.40;;;2.30;;
13012;SDS011;22580;57.670;12.006;2023-04-15T02:05:41;2.13;;;1.93;;
13012;SDS011;22580;57.670;12.006;2023-04-15T02:08:08;2.40;;;2.20;;
13012;SDS011;22580;57.670;12.006;2023-04-15T02:10:35;2.63;;;2.43;;
13012;SDS011;22580;57.670;12.006;2023-04-15T02:13:02;2.40;;;2.20;;
13012;SDS011;22580;57.670;12.006;2023-04-15T02:15:28;3.00;;;2.70;;
13012;SDS011;22580;57.670;12.006;2023-04-15T02:17:57;2.50;;;2.30;;
13012;SDS011;22580;57.670;12.006;2023-04-15T02:20:25;3.00;;;2.70;;
13012;SDS011;22580;57.670;12.006;2023-04-15T02:22:51;3.50;;;3.20;;
13012;SDS011;22580;57.670;12.006;2023-04-15T02:25:20;3.33;;;3.03;;
13012;SDS011;22580;57.670;12.006;2023-04-15T02:27:53;3.00;;;2.80;;
13012;SDS011;22580;57.670;12.006;2023-04-15T02:30:23;3.60;;;3.30;;
13012;SDS011;22580;57.670;12.006;2023-04-15T02:32:50;4.27;;;3.50;;
13012;SDS011;22580;57.670;12.006;2023-04-15T02:35:18;3.70;;;3.40;;
13012;SDS011;22580;57.670;12.006;2023-04-15T02:37:45;3.20;;;2.90;;
13012;SDS011;22580;57.670;12.006;2023-04-15T02:40:12;3.70;;;3.40;;
13012;SDS011;22580;57.670;12.006;2023-04-15T02:42:40;3.27;;;2.97;;
13012;SDS011;22580;57.670;12.006;2023-04-15T02:45:08;4.47;;;4.07;;
13012;SDS011;22580;57.670;12.006;2023-04-15T02:47:37;4.03;;;3.63;;
13012;SDS011;22580;57.670;12.006;2023-04-15T02:50:06;3.70;;;3.30;;
13012;SDS011;22580;57.670;12.006;2023-04-15T02:52:38;2.57;;;2.37;;
13012;SDS011;22580;57.670;12.006;2023-04-15T02:55:05;3.17;;;2.87;;
13012;SDS011;22580;57.670;12.006;2023-04-15T02:57:33;3.20;;;2.90;;
13012;SDS011;22580;57.670;12.006;2023-04-15T03:00:03;3.13;;;2.93;;
13012;SDS011;22580;57.670;12.006;2023-04-15T03:02:33;3.10;;;2.90;;
13012;SDS011;22580;57.670;12.006;2023-04-15T03:05:00;3.47;;;3.17;;
13012;SDS011;22580;57.670;12.006;2023-04-15T03:07:28;3.43;;;2.90;;
13012;SDS011;22580;57.670;12.006;2023-04-15T03:09:56;4.23;;;3.83;;
13012;SDS011;22580;57.670;12.006;2023-04-15T03:12:24;3.80;;;3.50;;
13012;SDS011;22580;57.670;12.006;2023-04-15T03:14:52;3.30;;;2.80;;
13012;SDS011;22580;57.670;12.006;2023-04-15T03:17:19;3.10;;;2.90;;
13012;SDS011;22580;57.670;12.006;2023-04-15T03:19:45;3.60;;;3.30;;
13012;SDS011;22580;57.670;12.006;2023-04-15T03:22:12;3.10;;;2.87;;
13012;SDS011;22580;57.670;12.006;2023-04-15T03:24:39;4.20;;;3.80;;
13012;SDS011;22580;57.670;12.006;2023-04-15T03:27:07;3.83;;;3.37;;
13012;SDS011;22580;57.670;12.006;2023-04-15T03:29:34;2.70;;;2.50;;
13012;SDS011;22580;57.670;12.006;2023-04-15T03:32:02;2.77;;;2.57;;
13012;SDS011;22580;57.670;12.006;2023-04-15T03:34:29;3.63;;;3.30;;
13012;SDS011;22580;57.670;12.006;2023-04-15T03:36:56;3.40;;;3.17;;
13012;SDS011;22580;57.670;12.006;2023-04-15T03:39:23;3.73;;;3.43;;
13012;SDS011;22580;57.670;12.006;2023-04-15T03:41:50;2.70;;;2.50;;
13012;SDS011;22580;57.670;12.006;2023-04-15T03:44:18;3.30;;;3.00;;
13012;SDS011;22580;57.670;12.006;2023-04-15T03:46:45;3.27;;;3.00;;
13012;SDS011;22580;57.670;12.006;2023-04-15T03:49:12;4.23;;;3.83;;
13012;SDS011;22580;57.670;12.006;2023-04-15T03:51:39;5.47;;;4.50;;
13012;SDS011;22580;57.670;12.006;2023-04-15T03:54:06;3.40;;;3.13;;
13012;SDS011;22580;57.670;12.006;2023-04-15T03:56:33;3.63;;;3.33;;
13012;SDS011;22580;57.670;12.006;2023-04-15T03:59:00;3.83;;;3.53;;
13012;SDS011;22580;57.670;12.006;2023-04-15T04:01:28;3.07;;;2.87;;
13012;SDS011;22580;57.670;12.006;2023-04-15T04:03:55;2.80;;;2.50;;
13012;SDS011;22580;57.670;12.006;2023-04-15T04:06:22;2.63;;;2.43;;
13012;SDS011;22580;57.670;12.006;2023-04-15T04:08:49;3.63;;;3.33;;
13012;SDS011;22580;57.670;12.006;2023-04-15T04:11:16;3.40;;;3.10;;
13012;SDS011;22580;57.670;12.006;2023-04-15T04:13:43;3.60;;;3.30;;
13012;SDS011;22580;57.670;12.006;2023-04-15T04:16:10;3.10;;;2.90;;
13012;SDS011;22580;57.670;12.006;2023-04-15T04:18:38;5.00;;;4.10;;
13012;SDS011;22580;57.670;12.006;2023-04-15T04:21:05;3.67;;;3.30;;
13012;SDS011;22580;57.670;12.006;2023-04-15T04:23:32;3.17;;;2.90;;
13012;SDS011;22580;57.670;12.006;2023-04-15T04:25:59;2.97;;;2.67;;
13012;SDS011;22580;57.670;12.006;2023-04-15T04:28:26;4.30;;;3.90;;
13012;SDS011;22580;57.670;12.006;2023-04-15T04:30:53;3.47;;;3.17;;
13012;SDS011;22580;57.670;12.006;2023-04-15T04:33:21;3.47;;;3.17;;
13012;SDS011;22580;57.670;12.006;2023-04-15T04:35:50;3.10;;;2.90;;
13012;SDS011;22580;57.670;12.006;2023-04-15T04:38:17;2.87;;;2.67;;
13012;SDS011;22580;57.670;12.006;2023-04-15T04:40:44;3.40;;;3.10;;
13012;SDS011;22580;57.670;12.006;2023-04-15T04:43:11;3.17;;;2.87;;
13012;SDS011;22580;57.670;12.006;2023-04-15T04:45:38;3.43;;;3.13;;
13012;SDS011;22580;57.670;12.006;2023-04-15T04:48:06;4.90;;;4.43;;
13012;SDS011;22580;57.670;12.006;2023-04-15T04:50:34;3.83;;;3.53;;
13012;SDS011;22580;57.670;12.006;2023-04-15T04:53:03;4.43;;;3.77;;
13012;SDS011;22580;57.670;12.006;2023-04-15T04:55:30;3.30;;;3.10;;
13012;SDS011;22580;57.670;12.006;2023-04-15T04:57:57;3.07;;;2.87;;
13012;SDS011;22580;57.670;12.006;2023-04-15T05:00:24;2.90;;;2.70;;
13012;SDS011;22580;57.670;12.006;2023-04-15T05:02:51;4.03;;;3.63;;
13012;SDS011;22580;57.670;12.006;2023-04-15T05:05:18;3.87;;;3.53;;
13012;SDS011;22580;57.670;12.006;2023-04-15T05:07:45;3.87;;;3.57;;
13012;SDS011;22580;57.670;12.006;2023-04-15T05:10:14;3.83;;;3.50;;
13012;SDS011;22580;57.670;12.006;2023-04-15T05:12:42;2.90;;;2.70;;
13012;SDS011;22580;57.670;12.006;2023-04-15T05:15:09;3.80;;;3.00;;
13012;SDS011;22580;57.670;12.006;2023-04-15T05:17:37;3.23;;;2.93;;
13012;SDS011;22580;57.670;12.006;2023-04-15T05:20:04;3.47;;;3.20;;
13012;SDS011;22580;57.670;12.006;2023-04-15T05:22:31;3.03;;;2.83;;
13012;SDS011;22580;57.670;12.006;2023-04-15T05:24:58;4.47;;;4.07;;
13012;SDS011;22580;57.670;12.006;2023-04-15T05:27:27;3.27;;;3.00;;
13012;SDS011;22580;57.670;12.006;2023-04-15T05:29:54;3.30;;;3.00;;
13012;SDS011;22580;57.670;12.006;2023-04-15T05:32:21;2.80;;;2.60;;
13012;SDS011;22580;57.670;12.006;2023-04-15T05:34:48;3.87;;;3.10;;
13012;SDS011;22580;57.670;12.006;2023-04-15T05:37:18;3.57;;;3.23;;
13012;SDS011;22580;57.670;12.006;2023-04-15T05:39:46;3.90;;;3.47;;
13012;SDS011;22580;57.670;12.006;2023-04-15T05:42:15;3.57;;;3.27;;
13012;SDS011;22580;57.670;12.006;2023-04-15T05:44:43;3.70;;;3.40;;
13012;SDS011;22580;57.670;12.006;2023-04-15T05:47:10;2.90;;;2.70;;
13012;SDS011;22580;57.670;12.006;2023-04-15T05:49:38;3.53;;;3.30;;
13012;SDS011;22580;57.670;12.006;2023-04-15T05:52:04;3.37;;;3.07;;
13012;SDS011;22580;57.670;12.006;2023-04-15T05:54:31;3.53;;;3.23;;
13012;SDS011;22580;57.670;12.006;2023-04-15T05:56:58;3.30;;;3.00;;
13012;SDS011;22580;57.670;12.006;2023-04-15T05:59:25;2.67;;;2.47;;
13012;SDS011;22580;57.670;12.006;2023-04-15T06:01:54;2.90;;;2.70;;
13012;SDS011;22580;57.670;12.006;2023-04-15T06:04:21;4.27;;;3.57;;
13012;SDS011;22580;57.670;12.006;2023-04-15T06:06:48;3.80;;;3.50;;
13012;SDS011;22580;57.670;12.006;2023-04-15T06:09:15;3.03;;;2.77;;
13012;SDS011;22580;57.670;12.006;2023-04-15T06:11:42;3.83;;;3.43;;
13012;SDS011;22580;57.670;12.006;2023-04-15T06:14:09;2.80;;;2.60;;
13012;SDS011;22580;57.670;12.006;2023-04-15T06:16:35;3.50;;;3.20;;
13012;SDS011;22580;57.670;12.006;2023-04-15T06:19:04;3.00;;;2.80;;
13012;SDS011;22580;57.670;12.006;2023-04-15T06:21:31;3.03;;;2.70;;
13012;SDS011;22580;57.670;12.006;2023-04-15T06:23:58;3.93;;;3.53;;
13012;SDS011;22580;57.670;12.006;2023-04-15T06:26:26;4.13;;;3.40;;
13012;SDS011;22580;57.670;12.006;2023-04-15T06:28:53;4.17;;;3.77;;
13012;SDS011;22580;57.670;12.006;2023-04-15T06:31:20;4.43;;;3.90;;
13012;SDS011;22580;57.670;12.006;2023-04-15T06:33:47;3.37;;;3.07;;
13012;SDS011;22580;57.670;12.006;2023-04-15T06:36:16;4.00;;;3.67;;
13012;SDS011;22580;57.670;12.006;2023-04-15T06:38:43;3.93;;;3.20;;
13012;SDS011;22580;57.670;12.006;2023-04-15T06:41:10;4.00;;;3.70;;
13012;SDS011;22580;57.670;12.006;2023-04-15T06:43:38;4.87;;;4.17;;
13012;SDS011;22580;57.670;12.006;2023-04-15T06:46:05;3.00;;;2.80;;
13012;SDS011;22580;57.670;12.006;2023-04-15T06:48:32;3.73;;;3.20;;
13012;SDS011;22580;57.670;12.006;2023-04-15T06:50:59;4.17;;;3.77;;
13012;SDS011;22580;57.670;12.006;2023-04-15T06:53:27;3.70;;;3.40;;
13012;SDS011;22580;57.670;12.006;2023-04-15T06:55:54;3.47;;;3.17;;
13012;SDS011;22580;57.670;12.006;2023-04-15T06:58:21;2.93;;;2.60;;
13012;SDS011;22580;57.670;12.006;2023-04-15T07:00:48;2.73;;;2.53;;
13012;SDS011;22580;57.670;12.006;2023-04-15T07:03:16;2.63;;;2.43;;
13012;SDS011;22580;57.670;12.006;2023-04-15T07:05:43;3.50;;;3.20;;
13012;SDS011;22580;57.670;12.006;2023-04-15T07:08:10;3.00;;;2.80;;
13012;SDS011;22580;57.670;12.006;2023-04-15T07:10:38;4.13;;;3.73;;
13012;SDS011;22580;57.670;12.006;2023-04-15T07:13:05;5.13;;;4.47;;
13012;SDS011;22580;57.670;12.006;2023-04-15T07:15:33;4.80;;;3.90;;
13012;SDS011;22580;57.670;12.006;2023-04-15T07:18:00;4.00;;;3.63;;
13012;SDS011;22580;57.670;12.006;2023-04-15T07:20:28;3.33;;;3.07;;
13012;SDS011;22580;57.670;12.006;2023-04-15T07:22:55;3.00;;;2.80;;
13012;SDS011;22580;57.670;12.006;2023-04-15T07:25:22;3.03;;;2.80;;
13012;SDS011;22580;57.670;12.006;2023-04-15T07:27:52;3.37;;;3.07;;
13012;SDS011;22580;57.670;12.006;2023-04-15T07:30:19;3.13;;;2.90;;
13012;SDS011;22580;57.670;12.006;2023-04-15T07:32:47;5.00;;;4.20;;
13012;SDS011;22580;57.670;12.006;2023-04-15T07:35:14;4.90;;;4.40;;
13012;SDS011;22580;57.670;12.006;2023-04-15T07:37:41;4.13;;;3.83;;
13012;SDS011;22580;57.670;12.006;2023-04-15T07:40:11;3.87;;;3.50;;
13012;SDS011;22580;57.670;12.006;2023-04-15T07:42:38;4.87;;;4.00;;
13012;SDS011;22580;57.670;12.006;2023-04-15T07:45:08;4.20;;;3.80;;
13012;SDS011;22580;57.670;12.006;2023-04-15T07:47:37;3.13;;;2.93;;
13012;SDS011;22580;57.670;12.006;2023-04-15T07:50:05;4.77;;;4.27;;
13012;SDS011;22580;57.670;12.006;2023-04-15T07:52:33;3.70;;;3.40;;
13012;SDS011;22580;57.670;12.006;2023-04-15T07:55:03;4.07;;;3.70;;
13012;SDS011;22580;57.670;12.006;2023-04-15T07:57:43;4.50;;;4.10;;
13012;SDS011;22580;57.670;12.006;2023-04-15T08:00:14;4.87;;;3.87;;
13012;SDS011;22580;57.670;12.006;2023-04-15T08:02:42;4.37;;;3.97;;
13012;SDS011;22580;57.670;12.006;2023-04-15T08:05:10;4.40;;;4.00;;
13012;SDS011;22580;57.670;12.006;2023-04-15T08:07:39;3.60;;;3.30;;
13012;SDS011;22580;57.670;12.006;2023-04-15T08:10:07;5.27;;;4.77;;
13012;SDS011;22580;57.670;12.006;2023-04-15T08:12:34;3.97;;;3.63;;
13012;SDS011;22580;57.670;12.006;2023-04-15T08:15:01;3.53;;;3.23;;
13012;SDS011;22580;57.670;12.006;2023-04-15T08:17:29;3.30;;;3.00;;
13012;SDS011;22580;57.670;12.006;2023-04-15T08:19:56;5.43;;;4.10;;
13012;SDS011;22580;57.670;12.006;2023-04-15T08:22:23;4.10;;;3.80;;
13012;SDS011;22580;57.670;12.006;2023-04-15T08:24:50;5.13;;;4.30;;
13012;SDS011;22580;57.670;12.006;2023-04-15T08:27:17;4.73;;;4.23;;
13012;SDS011;22580;57.670;12.006;2023-04-15T08:29:46;5.70;;;4.50;;
13012;SDS011;22580;57.670;12.006;2023-04-15T08:32:13;4.27;;;3.87;;
13012;SDS011;22580;57.670;12.006;2023-04-15T08:34:42;4.60;;;4.17;;
13012;SDS011;22580;57.670;12.006;2023-04-15T08:37:09;6.97;;;5.43;;
13012;SDS011;22580;57.670;12.006;2023-04-15T08:39:37;4.70;;;4.30;;
13012;SDS011;22580;57.670;12.006;2023-04-15T08:42:05;4.20;;;3.80;;
13012;SDS011;22580;57.670;12.006;2023-04-15T08:44:37;5.30;;;4.80;;
13012;SDS011;22580;57.670;12.006;2023-04-15T08:47:06;4.20;;;3.80;;
13012;SDS011;22580;57.670;12.006;2023-04-15T08:49:34;3.87;;;3.47;;
13012;SDS011;22580;57.670;12.006;2023-04-15T08:52:07;4.00;;;3.60;;
13012;SDS011;22580;57.670;12.006;2023-04-15T08:54:35;3.77;;;3.37;;
13012;SDS011;22580;57.670;12.006;2023-04-15T08:57:03;3.77;;;3.47;;
13012;SDS011;22580;57.670;12.006;2023-04-15T08:59:31;6.67;;;5.17;;
13012;SDS011;22580;57.670;12.006;2023-04-15T09:01:58;4.73;;;4.33;;
13012;SDS011;22580;57.670;12.006;2023-04-15T09:04:25;3.50;;;3.20;;
13012;SDS011;22580;57.670;12.006;2023-04-15T09:06:53;4.20;;;3.90;;
13012;SDS011;22580;57.670;12.006;2023-04-15T09:09:22;5.23;;;4.73;;
13012;SDS011;22580;57.670;12.006;2023-04-15T09:11:49;4.10;;;3.80;;
13012;SDS011;22580;57.670;12.006;2023-04-15T09:14:16;3.60;;;3.30;;
13012;SDS011;22580;57.670;12.006;2023-04-15T09:16:55;3.27;;;2.97;;
13012;SDS011;22580;57.670;12.006;2023-04-15T09:19:23;3.27;;;3.07;;
13012;SDS011;22580;57.670;12.006;2023-04-15T09:21:51;4.17;;;3.60;;
13012;SDS011;22580;57.670;12.006;2023-04-15T09:24:21;4.13;;;3.73;;
13012;SDS011;22580;57.670;12.006;2023-04-15T09:26:51;4.20;;;3.77;;
13012;SDS011;22580;57.670;12.006;2023-04-15T09:29:20;4.43;;;4.00;;
13012;SDS011;22580;57.670;12.006;2023-04-15T09:31:51;4.67;;;3.90;;
13012;SDS011;22580;57.670;12.006;2023-04-15T09:34:18;5.47;;;4.57;;
13012;SDS011;22580;57.670;12.006;2023-04-15T09:36:52;3.70;;;3.40;;
13012;SDS011;22580;57.670;12.006;2023-04-15T09:39:20;3.73;;;3.43;;
13012;SDS011;22580;57.670;12.006;2023-04-15T09:41:48;3.80;;;3.50;;
13012;SDS011;22580;57.670;12.006;2023-04-15T09:44:30;3.77;;;3.47;;
13012;SDS011;22580;57.670;12.006;2023-04-15T09:46:58;5.63;;;4.70;;
13012;SDS011;22580;57.670;12.006;2023-04-15T09:49:25;4.67;;;4.27;;
13012;SDS011;22580;57.670;12.006;2023-04-15T09:51:56;5.07;;;4.07;;
13012;SDS011;22580;57.670;12.006;2023-04-15T09:54:27;3.83;;;3.53;;
13012;SDS011;22580;57.670;12.006;2023-04-15T09:57:05;6.37;;;5.20;;
13012;SDS011;22580;57.670;12.006;2023-04-15T09:59:32;5.60;;;5.03;;
13012;SDS011;22580;57.670;12.006;2023-04-15T10:02:02;5.37;;;4.27;;
13012;SDS011;22580;57.670;12.006;2023-04-15T10:04:31;5.30;;;4.80;;
13012;SDS011;22580;57.670;12.006;2023-04-15T10:07:02;5.07;;;4.33;;
13012;SDS011;22580;57.670;12.006;2023-04-15T10:09:30;5.30;;;4.77;;
13012;SDS011;22580;57.670;12.006;2023-04-15T10:11:58;5.20;;;4.70;;
13012;SDS011;22580;57.670;12.006;2023-04-15T10:14:28;4.60;;;4.20;;
13012;SDS011;22580;57.670;12.006;2023-04-15T10:17:00;4.17;;;3.77;;
13012;SDS011;22580;57.670;12.006;2023-04-15T10:19:29;5.87;;;4.60;;
13012;SDS011;22580;57.670;12.006;2023-04-15T10:21:57;5.78;;;4.80;;
13012;SDS011;22580;57.670;12.006;2023-04-15T10:24:29;5.33;;;4.83;;
13012;SDS011;22580;57.670;12.006;2023-04-15T10:26:59;5.82;;;4.75;;
13012;SDS011;22580;57.670;12.006;2023-04-15T10:29:30;5.03;;;4.13;;
13012;SDS011;22580;57.670;12.006;2023-04-15T10:31:57;4.53;;;4.13;;
13012;SDS011;22580;57.670;12.006;2023-04-15T10:34:25;4.80;;;4.40;;
13012;SDS011;22580;57.670;12.006;2023-04-15T10:36:54;4.20;;;3.80;;
13012;SDS011;22580;57.670;12.006;2023-04-15T10:39:37;3.72;;;3.42;;
13012;SDS011;22580;57.670;12.006;2023-04-15T10:42:06;3.67;;;3.35;;
13012;SDS011;22580;57.670;12.006;2023-04-15T10:44:36;3.30;;;3.00;;
13012;SDS011;22580;57.670;12.006;2023-04-15T10:47:09;5.20;;;4.70;;
13012;SDS011;22580;57.670;12.006;2023-04-15T10:49:44;4.30;;;4.00;;
13012;SDS011;22580;57.670;12.006;2023-04-15T10:52:13;3.75;;;3.45;;
13012;SDS011;22580;57.670;12.006;2023-04-15T10:54:42;3.88;;;3.58;;
13012;SDS011;22580;57.670;12.006;2023-04-15T10:57:13;3.70;;;3.40;;
13012;SDS011;22580;57.670;12.006;2023-04-15T11:02:43;4.70;;;4.28;;
13012;SDS011;22580;57.670;12.006;2023-04-15T11:05:14;4.15;;;3.80;;
13012;SDS011;22580;57.670;12.006;2023-04-15T11:07:50;3.58;;;3.28;;
13012;SDS011;22580;57.670;12.006;2023-04-15T11:13:21;4.57;;;4.13;;
13012;SDS011;22580;57.670;12.006;2023-04-15T11:15:54;3.92;;;3.60;;
13012;SDS011;22580;57.670;12.006;2023-04-15T11:18:26;4.13;;;3.83;;
13012;SDS011;22580;57.670;12.006;2023-04-15T11:20:59;3.72;;;3.42;;
13012;SDS011;22580;57.670;12.006;2023-04-15T11:23:31;4.18;;;3.88;;
13012;SDS011;22580;57.670;12.006;2023-04-15T11:26:00;2.83;;;2.63;;
13012;SDS011;22580;57.670;12.006;2023-04-15T11:28:29;3.72;;;3.40;;
13012;SDS011;22580;57.670;12.006;2023-04-15T11:31:04;4.35;;;3.95;;
13012;SDS011;22580;57.670;12.006;2023-04-15T11:33:32;4.65;;;4.25;;
13012;SDS011;22580;57.670;12.006;2023-04-15T11:35:59;4.03;;;3.72;;
13012;SDS011;22580;57.670;12.006;2023-04-15T11:38:27;4.07;;;3.78;;
13012;SDS011;22580;57.670;12.006;2023-04-15T11:40:55;4.47;;;4.18;;
13012;SDS011;22580;57.670;12.006;2023-04-15T11:43:22;4.20;;;3.90;;
13012;SDS011;22580;57.670;12.006;2023-04-15T11:45:51;4.25;;;3.95;;
13012;SDS011;22580;57.670;12.006;2023-04-15T11:48:24;4.68;;;4.28;;
13012;SDS011;22580;57.670;12.006;2023-04-15T11:50:53;4.30;;;4.00;;
13012;SDS011;22580;57.670;12.006;2023-04-15T11:53:22;4.82;;;4.40;;
13012;SDS011;22580;57.670;12.006;2023-04-15T11:55:52;4.38;;;4.07;;
13012;SDS011;22580;57.670;12.006;2023-04-15T11:58:30;4.88;;;4.47;;
13012;SDS011;22580;57.670;12.006;2023-04-15T12:01:01;5.30;;;4.80;;
13012;SDS011;22580;57.670;12.006;2023-04-15T12:03:35;4.30;;;4.00;;
13012;SDS011;22580;57.670;12.006;2023-04-15T12:06:10;4.30;;;4.00;;
13012;SDS011;22580;57.670;12.006;2023-04-15T12:08:47;4.10;;;3.78;;
13012;SDS011;22580;57.670;12.006;2023-04-15T12:11:16;4.68;;;4.28;;
13012;SDS011;22580;57.670;12.006;2023-04-15T12:13:44;3.97;;;3.60;;
13012;SDS011;22580;57.670;12.006;2023-04-15T12:16:15;3.53;;;3.33;;
13012;SDS011;22580;57.670;12.006;2023-04-15T12:18:45;3.50;;;3.30;;
13012;SDS011;22580;57.670;12.006;2023-04-15T12:21:13;3.97;;;3.67;;
13012;SDS011;22580;57.670;12.006;2023-04-15T12:23:47;4.07;;;3.78;;
13012;SDS011;22580;57.670;12.006;2023-04-15T12:26:15;4.28;;;3.88;;
13012;SDS011;22580;57.670;12.006;2023-04-15T12:28:43;4.28;;;3.97;;
13012;SDS011;22580;57.670;12.006;2023-04-15T12:31:11;4.03;;;3.72;;
13012;SDS011;22580;57.670;12.006;2023-04-15T12:33:38;4.40;;;4.00;;
13012;SDS011;22580;57.670;12.006;2023-04-15T12:36:07;4.85;;;4.45;;
13012;SDS011;22580;57.670;12.006;2023-04-15T12:38:34;4.50;;;4.20;;
13012;SDS011;22580;57.670;12.006;2023-04-15T12:41:01;3.90;;;3.60;;
13012;SDS011;22580;57.670;12.006;2023-04-15T12:43:28;4.53;;;4.10;;
13012;SDS011;22580;57.670;12.006;2023-04-15T12:45:55;6.13;;;4.85;;
13012;SDS011;22580;57.670;12.006;2023-04-15T12:48:23;4.60;;;4.20;;
13012;SDS011;22580;57.670;12.006;2023-04-15T12:50:50;6.93;;;5.70;;
13012;SDS011;22580;57.670;12.006;2023-04-15T12:53:19;5.90;;;5.30;;
13012;SDS011;22580;57.670;12.006;2023-04-15T12:55:46;5.63;;;4.90;;
13012;SDS011;22580;57.670;12.006;2023-04-15T12:58:13;5.40;;;4.90;;
13012;SDS011;22580;57.670;12.006;2023-04-15T13:00:40;5.03;;;4.53;;
13012;SDS011;22580;57.670;12.006;2023-04-15T13:03:07;4.43;;;4.00;;
13012;SDS011;22580;57.670;12.006;2023-04-15T13:05:34;3.83;;;3.53;;
13012;SDS011;22580;57.670;12.006;2023-04-15T13:08:03;3.70;;;3.40;;
13012;SDS011;22580;57.670;12.006;2023-04-15T13:10:32;3.67;;;3.38;;
13012;SDS011;22580;57.670;12.006;2023-04-15T13:13:02;3.22;;;3.00;;
13012;SDS011;22580;57.670;12.006;2023-04-15T13:15:32;2.97;;;2.78;;
13012;SDS011;22580;57.670;12.006;2023-04-15T13:18:00;3.00;;;2.80;;
13012;SDS011;22580;57.670;12.006;2023-04-15T13:20:27;2.90;;;2.70;;
13012;SDS011;22580;57.670;12.006;2023-04-15T13:22:54;2.58;;;2.42;;
13012;SDS011;22580;57.670;12.006;2023-04-15T13:25:22;3.10;;;2.90;;
13012;SDS011;22580;57.670;12.006;2023-04-15T13:27:51;3.10;;;2.90;;
13012;SDS011;22580;57.670;12.006;2023-04-15T13:30:18;3.20;;;2.90;;
13012;SDS011;22580;57.670;12.006;2023-04-15T13:32:45;3.72;;;3.42;;
13012;SDS011;22580;57.670;12.006;2023-04-15T13:35:12;3.20;;;3.00;;
13012;SDS011;22580;57.670;12.006;2023-04-15T13:37:40;2.90;;;2.70;;
13012;SDS011;22580;57.670;12.006;2023-04-15T13:40:07;3.05;;;2.85;;
13012;SDS011;22580;57.670;12.006;2023-04-15T13:42:36;2.60;;;2.50;;
13012;SDS011;22580;57.670;12.006;2023-04-15T13:45:05;2.30;;;2.20;;
13012;SDS011;22580;57.670;12.006;2023-04-15T13:47:33;2.40;;;2.30;;
13012;SDS011;22580;57.670;12.006;2023-04-15T13:50:00;2.70;;;2.50;;
13012;SDS011;22580;57.670;12.006;2023-04-15T13:52:27;2.50;;;2.40;;
13012;SDS011;22580;57.670;12.006;2023-04-15T13:54:54;2.47;;;2.30;;
13012;SDS011;22580;57.670;12.006;2023-04-15T13:57:21;2.70;;;2.53;;
13012;SDS011;22580;57.670;12.006;2023-04-15T13:59:49;2.45;;;2.33;;
13012;SDS011;22580;57.670;12.006;2023-04-15T14:02:20;2.90;;;2.70;;
13012;SDS011;22580;57.670;12.006;2023-04-15T14:04:48;2.88;;;2.30;;
13012;SDS011;22580;57.670;12.006;2023-04-15T14:07:15;2.60;;;2.50;;
13012;SDS011;22580;57.670;12.006;2023-04-15T14:09:42;2.40;;;2.20;;
13012;SDS011;22580;57.670;12.006;2023-04-15T14:12:09;2.55;;;2.40;;
13012;SDS011;22580;57.670;12.006;2023-04-15T14:14:36;2.53;;;2.33;;
13012;SDS011;22580;57.670;12.006;2023-04-15T14:17:03;2.60;;;2.40;;
13012;SDS011;22580;57.670;12.006;2023-04-15T14:19:31;2.30;;;2.10;;
13012;SDS011;22580;57.670;12.006;2023-04-15T14:21:59;2.50;;;2.30;;
13012;SDS011;22580;57.670;12.006;2023-04-15T14:24:27;2.15;;;2.05;;
13012;SDS011;22580;57.670;12.006;2023-04-15T14:26:54;2.00;;;1.90;;
13012;SDS011;22580;57.670;12.006;2023-04-15T14:29:21;1.83;;;1.73;;
13012;SDS011;22580;57.670;12.006;2023-04-15T14:31:48;1.73;;;1.63;;
13012;SDS011;22580;57.670;12.006;2023-04-15T14:34:18;1.95;;;1.85;;
13012;SDS011;22580;57.670;12.006;2023-04-15T14:36:47;2.20;;;2.10;;
13012;SDS011;22580;57.670;12.006;2023-04-15T14:39:15;2.28;;;2.17;;
13012;SDS011;22580;57.670;12.006;2023-04-15T14:41:42;2.38;;;2.22;;
13012;SDS011;22580;57.670;12.006;2023-04-15T14:44:08;2.55;;;2.35;;